Time;durP1;ratioP1;P1;durP2;ratioP2;P2;SDS_P1;SDS_P2;PMS_P1;PMS_P2;Temp;Humidity;BMP_temperature;BMP_pressure;BME280_temperature;BME280_humidity;BME280_pressure;Samples;Min_cycle;Max_cycle;Signal;HPM_P1;HPM_P2
2023/11/09 00:01:40;;;;;;;3.30;2.17;;;10.00;99.90;;;;;;5074856;28;20515;-74
2023/11/09 00:04:27;;;;;;;4.33;2.00;;;10.00;99.90;;;;;;5076620;28;20442;-74
2023/11/09 00:07:13;;;;;;;4.77;1.63;;;10.00;99.90;;;;;;5076866;28;20969;-75
2023/11/09 00:10:02;;;;;;;3.30;1.97;;;10.00;99.90;;;;;;5065418;28;20957;-75
2023/11/09 00:12:50;;;;;;;4.70;1.67;;;10.00;99.90;;;;;;5074484;28;20639;-74
2023/11/09 00:15:38;;;;;;;4.23;1.80;;;10.00;99.90;;;;;;5074651;28;20437;-74
2023/11/09 00:18:24;;;;;;;5.70;1.53;;;10.00;99.90;;;;;;5077406;28;20448;-75
2023/11/09 00:21:11;;;;;;;4.03;2.03;;;10.00;99.90;;;;;;5073067;28;20460;-75
2023/11/09 00:23:57;;;;;;;3.43;2.10;;;10.10;99.90;;;;;;5064739;28;20499;-74
2023/11/09 00:26:45;;;;;;;3.17;1.60;;;10.00;99.90;;;;;;5071099;28;21046;-75
2023/11/09 00:29:33;;;;;;;4.40;1.90;;;10.00;99.90;;;;;;5073023;28;20573;-74
2023/11/09 00:32:18;;;;;;;4.70;2.00;;;10.00;99.90;;;;;;5075243;28;20623;-74
2023/11/09 00:35:07;;;;;;;4.63;2.13;;;10.10;99.90;;;;;;5074429;28;20969;-75
2023/11/09 00:37:54;;;;;;;6.83;2.30;;;10.10;99.90;;;;;;5081654;28;20928;-75
2023/11/09 00:40:40;;;;;;;4.50;1.60;;;10.20;99.90;;;;;;5075180;28;20958;-74
2023/11/09 00:43:26;;;;;;;3.50;1.60;;;10.20;99.90;;;;;;5068195;28;20485;-74
2023/11/09 00:46:11;;;;;;;9.00;2.00;;;10.20;99.90;;;;;;5069851;28;20482;-74
2023/11/09 00:48:57;;;;;;;3.40;1.90;;;10.20;99.90;;;;;;5076579;28;20453;-76
2023/11/09 00:51:42;;;;;;;3.80;1.80;;;10.30;99.90;;;;;;5076777;28;20473;-75
2023/11/09 00:54:29;;;;;;;4.10;1.70;;;10.20;99.90;;;;;;5064594;28;20927;-76
2023/11/09 00:57:15;;;;;;;5.87;3.23;;;10.20;99.90;;;;;;5069009;28;20449;-74
2023/11/09 01:00:00;;;;;;;2.73;1.77;;;10.10;99.90;;;;;;5080555;28;20462;-73
2023/11/09 01:02:48;;;;;;;3.50;1.63;;;10.10;99.90;;;;;;5081388;28;20449;-74
2023/11/09 01:05:34;;;;;;;4.03;2.03;;;10.10;99.90;;;;;;5071210;28;20427;-73
2023/11/09 01:08:21;;;;;;;5.03;1.80;;;10.00;99.90;;;;;;5063026;28;20802;-74
2023/11/09 01:11:09;;;;;;;3.90;1.93;;;9.80;99.90;;;;;;5076847;28;20871;-73
2023/11/09 01:13:54;;;;;;;5.27;1.90;;;9.60;99.90;;;;;;5070729;28;20489;-75
2023/11/09 01:16:39;;;;;;;3.70;1.43;;;9.60;99.90;;;;;;5081008;28;20421;-75
2023/11/09 01:19:25;;;;;;;4.40;1.73;;;9.60;99.90;;;;;;5073286;28;20489;-76
2023/11/09 01:22:12;;;;;;;3.00;1.60;;;9.50;99.90;;;;;;5070666;28;20457;-76
2023/11/09 01:24:57;;;;;;;7.03;1.73;;;9.60;99.90;;;;;;5065100;28;20570;-75
2023/11/09 01:27:44;;;;;;;3.70;1.97;;;9.60;99.90;;;;;;5075927;28;20580;-75
2023/11/09 01:30:30;;;;;;;6.50;1.60;;;9.70;99.90;;;;;;5074910;28;20511;-76
2023/11/09 01:33:16;;;;;;;4.27;2.03;;;9.70;99.90;;;;;;5071210;28;20471;-76
2023/11/09 01:36:02;;;;;;;3.20;1.70;;;9.70;99.90;;;;;;5083941;28;20442;-75
2023/11/09 01:38:47;;;;;;;3.93;1.53;;;9.80;99.90;;;;;;5075972;28;21021;-76
2023/11/09 01:41:33;;;;;;;5.50;1.67;;;9.90;99.90;;;;;;5060196;28;20621;-76
2023/11/09 01:44:20;;;;;;;2.60;1.60;;;9.90;99.90;;;;;;5062341;28;20435;-75
2023/11/09 01:47:06;;;;;;;2.87;1.57;;;10.00;99.90;;;;;;5065036;28;20442;-76
2023/11/09 01:49:52;;;;;;;4.03;1.50;;;10.20;99.90;;;;;;5073461;28;20439;-75
2023/11/09 01:52:38;;;;;;;4.23;1.50;;;10.30;99.90;;;;;;5071141;28;20459;-75
2023/11/09 01:55:26;;;;;;;2.20;1.40;;;10.40;99.90;;;;;;5072280;28;20925;-75
2023/11/09 01:58:12;;;;;;;4.40;1.60;;;10.40;99.90;;;;;;5064386;28;20868;-74
2023/11/09 02:01:01;;;;;;;4.27;1.57;;;10.40;99.90;;;;;;5070048;28;20472;-75
2023/11/09 02:03:47;;;;;;;3.20;1.50;;;10.40;99.90;;;;;;5071202;28;20442;-75
2023/11/09 02:06:34;;;;;;;2.00;1.10;;;10.50;99.90;;;;;;5081658;28;20464;-75
2023/11/09 02:09:20;;;;;;;2.53;1.23;;;10.50;99.90;;;;;;5067847;28;20452;-74
2023/11/09 02:12:07;;;;;;;3.83;1.30;;;10.60;99.90;;;;;;5075018;28;20542;-75
2023/11/09 02:14:53;;;;;;;10.10;2.27;;;10.50;99.90;;;;;;5077597;28;20416;-75
2023/11/09 02:17:41;;;;;;;3.10;1.57;;;10.50;99.90;;;;;;5072126;28;20408;-75
2023/11/09 02:20:28;;;;;;;4.27;1.47;;;10.60;99.90;;;;;;5079866;28;20527;-74
2023/11/09 02:23:16;;;;;;;4.23;1.33;;;10.60;99.90;;;;;;5074163;28;20455;-75
2023/11/09 02:26:04;;;;;;;4.13;1.50;;;10.60;99.90;;;;;;5079466;28;20792;-75
2023/11/09 02:28:53;;;;;;;1.80;1.10;;;10.60;99.90;;;;;;5083421;28;20541;-74
2023/11/09 02:31:39;;;;;;;5.10;1.57;;;10.60;97.00;;;;;;5073698;28;20478;-75
2023/11/09 02:34:24;;;;;;;2.70;1.50;;;10.70;96.30;;;;;;5081312;28;20493;-75
2023/11/09 02:37:10;;;;;;;2.17;1.33;;;10.70;94.50;;;;;;5075188;28;20437;-74
2023/11/09 02:39:56;;;;;;;2.13;1.20;;;10.80;96.30;;;;;;5072173;28;20503;-75
2023/11/09 02:42:43;;;;;;;5.00;1.40;;;10.70;95.00;;;;;;5064055;28;21000;-75
2023/11/09 02:45:29;;;;;;;2.80;1.53;;;10.70;96.60;;;;;;5071664;28;20446;-74
2023/11/09 02:48:14;;;;;;;3.17;1.30;;;10.70;94.00;;;;;;5066860;28;20781;-74
2023/11/09 02:51:00;;;;;;;2.33;1.40;;;10.70;94.60;;;;;;5078962;28;20483;-74
2023/11/09 02:53:46;;;;;;;4.00;1.27;;;10.70;92.60;;;;;;5075935;28;20472;-74
2023/11/09 02:56:31;;;;;;;3.37;1.63;;;10.70;92.40;;;;;;5071791;28;20422;-75
2023/11/09 02:59:18;;;;;;;5.50;1.53;;;10.80;92.30;;;;;;5074869;28;20662;-74
2023/11/09 03:02:06;;;;;;;2.37;1.30;;;10.80;92.00;;;;;;5075485;28;20465;-75
2023/11/09 03:04:51;;;;;;;3.40;1.57;;;10.80;92.10;;;;;;5081053;28;20485;-75
2023/11/09 03:07:37;;;;;;;2.07;1.20;;;10.80;93.40;;;;;;5076295;28;21032;-75
2023/11/09 03:10:23;;;;;;;4.03;1.53;;;10.70;95.20;;;;;;5070600;28;20449;-74
2023/11/09 03:13:09;;;;;;;2.80;1.27;;;10.60;95.50;;;;;;5078374;28;20563;-76
2023/11/09 03:15:56;;;;;;;1.73;1.10;;;10.50;96.50;;;;;;5080617;28;20955;-77
2023/11/09 03:18:42;;;;;;;2.97;1.53;;;10.50;94.90;;;;;;5079806;28;20505;-76
2023/11/09 03:21:28;;;;;;;3.10;1.37;;;10.40;99.40;;;;;;5074201;28;20472;-75
2023/11/09 03:24:14;;;;;;;4.33;1.77;;;10.30;97.20;;;;;;5073044;28;20802;-77
2023/11/09 03:26:59;;;;;;;3.67;1.20;;;10.30;95.40;;;;;;5080932;28;20472;-77
2023/11/09 03:29:45;;;;;;;2.10;1.20;;;10.30;95.50;;;;;;5080273;28;20420;-76
2023/11/09 03:32:32;;;;;;;2.03;1.10;;;10.30;97.20;;;;;;5079761;28;21003;-76
2023/11/09 03:35:18;;;;;;;6.00;1.60;;;10.30;98.20;;;;;;5074363;28;20445;-77
2023/11/09 03:38:04;;;;;;;2.70;1.60;;;10.30;98.10;;;;;;5064307;28;20524;-77
2023/11/09 03:40:50;;;;;;;4.13;1.50;;;10.20;93.80;;;;;;5066644;28;20449;-76
2023/11/09 03:43:36;;;;;;;4.27;1.37;;;10.30;96.20;;;;;;5063552;28;20923;-76
2023/11/09 03:46:22;;;;;;;2.90;1.37;;;10.30;96.00;;;;;;5073992;28;20445;-77
2023/11/09 03:49:10;;;;;;;2.43;1.57;;;10.20;94.30;;;;;;5069693;28;20998;-72
2023/11/09 03:51:56;;;;;;;5.53;1.23;;;10.30;95.70;;;;;;5074175;28;21023;-77
2023/11/09 03:54:42;;;;;;;3.23;1.40;;;10.30;95.60;;;;;;5072701;28;20580;-76
2023/11/09 03:57:27;;;;;;;2.63;1.60;;;10.20;96.00;;;;;;5065819;28;20405;-76
2023/11/09 04:00:14;;;;;;;3.23;1.17;;;10.20;94.60;;;;;;5072854;28;20813;-76
2023/11/09 04:03:00;;;;;;;3.17;1.43;;;10.20;95.60;;;;;;5070125;28;20427;-77
2023/11/09 04:05:47;;;;;;;3.43;1.57;;;10.20;94.70;;;;;;5067182;28;20904;-76
2023/11/09 04:08:32;;;;;;;4.80;1.67;;;10.20;95.10;;;;;;5070152;28;20524;-77
2023/11/09 04:11:18;;;;;;;3.10;1.30;;;10.20;94.00;;;;;;5071568;28;20487;-76
2023/11/09 04:14:04;;;;;;;4.50;2.00;;;10.10;96.50;;;;;;5076954;28;20569;-77
2023/11/09 04:16:50;;;;;;;4.03;1.53;;;10.10;97.00;;;;;;5082119;28;20445;-76
2023/11/09 04:19:36;;;;;;;3.00;1.70;;;10.20;95.30;;;;;;5061585;28;20509;-77
2023/11/09 04:22:23;;;;;;;3.30;1.57;;;10.10;94.40;;;;;;5070204;28;20474;-76
2023/11/09 04:25:09;;;;;;;3.07;1.70;;;10.10;93.40;;;;;;5073493;28;20436;-77
2023/11/09 04:27:55;;;;;;;3.63;1.47;;;10.10;92.90;;;;;;5073007;28;20468;-77
2023/11/09 04:30:41;;;;;;;3.10;1.70;;;10.10;93.40;;;;;;5072766;28;20412;-77
2023/11/09 04:33:27;;;;;;;3.40;1.63;;;10.20;94.60;;;;;;5069148;28;20731;-77
2023/11/09 04:36:12;;;;;;;3.13;1.87;;;10.30;94.40;;;;;;5072156;28;20806;-76
2023/11/09 04:39:01;;;;;;;6.40;1.83;;;10.20;93.90;;;;;;5073123;28;20818;-77
2023/11/09 04:41:47;;;;;;;4.80;1.70;;;10.20;94.90;;;;;;5077287;28;20469;-76
2023/11/09 04:44:33;;;;;;;2.87;1.70;;;10.10;94.20;;;;;;5073289;28;20466;-76
2023/11/09 04:47:21;;;;;;;7.30;1.87;;;10.00;95.50;;;;;;5076879;28;20449;-76
2023/11/09 04:50:13;;;;;;;9.23;1.77;;;10.00;95.00;;;;;;5067891;28;20453;-76
2023/11/09 04:53:15;;;;;;;6.00;1.47;;;10.00;94.40;;;;;;5074834;28;20971;-77
2023/11/09 04:56:07;;;;;;;2.70;1.63;;;10.10;94.90;;;;;;5069526;28;20467;-76
2023/11/09 04:59:01;;;;;;;3.40;1.90;;;10.10;92.80;;;;;;5082320;28;20837;-76
2023/11/09 05:07:55;;;;;;;3.10;2.10;;;10.10;92.80;;;;;;5076664;28;20920;-76
2023/11/09 05:10:41;;;;;;;4.80;2.17;;;10.10;93.30;;;;;;5072943;28;20465;-76
2023/11/09 05:13:28;;;;;;;2.87;1.40;;;10.10;94.80;;;;;;5080008;28;20452;-75
2023/11/09 05:16:13;;;;;;;2.50;1.70;;;10.00;95.20;;;;;;5075097;28;20427;-76
2023/11/09 05:18:59;;;;;;;4.23;1.30;;;10.00;96.60;;;;;;5086308;28;20588;-76
2023/11/09 05:21:44;;;;;;;2.23;1.67;;;9.90;96.90;;;;;;5076896;28;20464;-77
2023/11/09 05:24:30;;;;;;;3.17;2.10;;;9.90;95.00;;;;;;5073577;28;20444;-76
2023/11/09 05:27:17;;;;;;;3.07;1.53;;;9.90;94.00;;;;;;5066979;28;20567;-76
2023/11/09 05:30:06;;;;;;;3.57;1.90;;;9.90;94.30;;;;;;5071370;28;20995;-75
2023/11/09 05:32:52;;;;;;;4.80;1.63;;;9.90;94.70;;;;;;5073186;28;20463;-77
2023/11/09 05:35:37;;;;;;;2.47;1.50;;;9.90;95.60;;;;;;5076953;28;20463;-76
2023/11/09 05:38:23;;;;;;;3.07;1.97;;;9.90;92.90;;;;;;5081648;28;20523;-76
2023/11/09 05:41:10;;;;;;;3.50;2.13;;;9.90;95.20;;;;;;5079899;28;20526;-75
2023/11/09 05:43:56;;;;;;;3.53;1.70;;;9.90;95.60;;;;;;5077993;28;20968;-76
2023/11/09 05:46:43;;;;;;;7.73;1.80;;;9.90;97.10;;;;;;5071277;28;20444;-75
2023/11/09 05:49:29;;;;;;;2.17;1.57;;;9.90;96.10;;;;;;5076650;28;20453;-75
2023/11/09 05:52:16;;;;;;;3.03;1.80;;;9.90;97.80;;;;;;5081132;28;20985;-75
2023/11/09 05:55:01;;;;;;;4.27;1.70;;;9.80;94.10;;;;;;5089455;28;20467;-76
2023/11/09 05:57:47;;;;;;;4.77;1.80;;;9.80;96.90;;;;;;5084862;28;20491;-77
2023/11/09 06:00:33;;;;;;;2.30;1.30;;;9.70;99.10;;;;;;5077843;28;20816;-77
2023/11/09 06:03:21;;;;;;;3.30;1.70;;;9.70;95.50;;;;;;5075383;28;20856;-77
2023/11/09 06:06:07;;;;;;;2.47;1.50;;;9.80;97.90;;;;;;5075986;28;20446;-77
2023/11/09 06:08:53;;;;;;;2.13;1.30;;;9.80;95.60;;;;;;5077495;28;20452;-76
2023/11/09 06:11:38;;;;;;;4.87;1.70;;;9.80;96.30;;;;;;5077580;28;20626;-77
2023/11/09 06:14:24;;;;;;;2.80;1.80;;;9.90;94.10;;;;;;5066052;28;20623;-77
2023/11/09 06:17:10;;;;;;;2.70;1.60;;;9.90;95.10;;;;;;5075940;28;20522;-75
2023/11/09 06:19:59;;;;;;;2.47;1.30;;;10.00;94.50;;;;;;5081547;28;20595;-77
2023/11/09 06:22:45;;;;;;;2.73;1.50;;;10.00;92.60;;;;;;5080117;28;21055;-76
2023/11/09 06:25:30;;;;;;;4.33;1.60;;;10.10;91.50;;;;;;5078397;28;20464;-74
2023/11/09 06:28:16;;;;;;;2.93;1.60;;;10.20;91.80;;;;;;5070891;28;20450;-76
2023/11/09 06:31:04;;;;;;;3.07;1.53;;;10.20;89.20;;;;;;5079502;28;20554;-77
2023/11/09 06:33:51;;;;;;;3.07;1.80;;;10.20;89.20;;;;;;5076571;28;20962;-77
2023/11/09 06:36:38;;;;;;;4.40;1.30;;;10.30;88.00;;;;;;5082925;28;20514;-76
2023/11/09 06:39:24;;;;;;;2.40;1.30;;;10.30;85.90;;;;;;5088154;28;20448;-77
2023/11/09 06:42:11;;;;;;;2.33;1.50;;;10.30;84.80;;;;;;5087997;28;20875;-77
2023/11/09 06:44:57;;;;;;;4.40;1.60;;;10.40;85.60;;;;;;5070387;28;20442;-77
2023/11/09 06:47:42;;;;;;;2.37;1.40;;;10.40;83.90;;;;;;5070137;28;20444;-75
2023/11/09 06:50:28;;;;;;;5.83;1.83;;;10.40;82.80;;;;;;5074531;28;20510;-76
2023/11/09 06:53:19;;;;;;;3.37;1.63;;;10.30;83.30;;;;;;5068140;28;20546;-77
2023/11/09 06:56:06;;;;;;;3.10;1.80;;;10.30;82.60;;;;;;5075943;28;20563;-77
2023/11/09 06:58:53;;;;;;;3.80;1.70;;;10.40;84.10;;;;;;5072448;28;20494;-76
2023/11/09 07:01:39;;;;;;;4.30;1.70;;;10.40;83.50;;;;;;5075369;28;20979;-75
2023/11/09 07:04:25;;;;;;;3.80;1.77;;;10.30;83.40;;;;;;5072645;28;20810;-76
2023/11/09 07:07:11;;;;;;;2.90;1.37;;;10.30;85.70;;;;;;5077670;28;20778;-76
2023/11/09 07:09:58;;;;;;;7.80;2.30;;;10.30;87.90;;;;;;5081472;28;20466;-77
2023/11/09 07:12:44;;;;;;;3.97;1.83;;;10.20;91.20;;;;;;5081047;28;20476;-77
2023/11/09 07:15:29;;;;;;;2.37;1.40;;;10.20;93.40;;;;;;5080939;28;20480;-76
2023/11/09 07:18:15;;;;;;;3.27;1.50;;;10.10;96.50;;;;;;5078065;28;20798;-74
2023/11/09 07:21:01;;;;;;;2.60;1.60;;;10.00;96.20;;;;;;5086463;28;20521;-77
2023/11/09 07:23:48;;;;;;;3.90;2.20;;;9.90;96.60;;;;;;5074688;28;20465;-76
2023/11/09 07:26:35;;;;;;;2.87;1.70;;;9.90;98.00;;;;;;5072289;28;20464;-76
2023/11/09 07:29:21;;;;;;;4.40;1.77;;;9.90;99.30;;;;;;5079748;28;21019;-76
2023/11/09 07:32:07;;;;;;;2.60;1.90;;;9.80;99.90;;;;;;5081986;28;21028;-77
2023/11/09 07:34:52;;;;;;;10.83;2.27;;;9.80;99.90;;;;;;5083724;28;20493;-76
2023/11/09 07:37:39;;;;;;;3.10;1.70;;;9.70;99.90;;;;;;5070074;28;20622;-76
2023/11/09 07:40:27;;;;;;;3.60;2.20;;;9.50;99.90;;;;;;5067022;28;20901;-76
2023/11/09 07:43:14;;;;;;;3.30;2.13;;;9.60;99.90;;;;;;5072054;28;20439;-76
2023/11/09 07:46:00;;;;;;;4.17;2.30;;;9.50;99.90;;;;;;5082151;28;20438;-75
2023/11/09 07:48:46;;;;;;;3.57;2.03;;;9.60;99.90;;;;;;5079918;28;20792;-76
2023/11/09 07:51:31;;;;;;;3.23;2.20;;;9.60;99.90;;;;;;5067281;28;20458;-76
2023/11/09 07:54:19;;;;;;;3.70;2.13;;;9.50;99.90;;;;;;5075768;28;20911;-76
2023/11/09 07:57:04;;;;;;;7.70;2.43;;;9.50;99.90;;;;;;5081352;28;20564;-74
2023/11/09 07:59:51;;;;;;;5.60;2.10;;;9.40;99.90;;;;;;5078403;28;20805;-76
2023/11/09 08:02:37;;;;;;;3.90;2.20;;;9.30;99.90;;;;;;5068220;28;20845;-75
2023/11/09 08:05:24;;;;;;;4.83;2.80;;;9.20;99.90;;;;;;5065242;28;20430;-76
2023/11/09 08:08:11;;;;;;;8.03;2.10;;;9.30;99.90;;;;;;5071596;28;20484;-75
2023/11/09 08:10:57;;;;;;;8.00;2.03;;;9.30;99.90;;;;;;5078937;28;20483;-75
2023/11/09 08:13:43;;;;;;;4.50;1.90;;;9.30;99.90;;;;;;5072917;28;20459;-76
2023/11/09 08:16:31;;;;;;;2.77;2.17;;;9.40;99.90;;;;;;5075670;28;20566;-75
2023/11/09 08:19:16;;;;;;;2.80;1.60;;;9.40;99.90;;;;;;5064766;28;20454;-75
2023/11/09 08:22:03;;;;;;;2.90;1.53;;;9.50;99.90;;;;;;5069048;28;20514;-76
2023/11/09 08:24:50;;;;;;;2.43;1.60;;;9.50;99.90;;;;;;5072919;28;20818;-76
2023/11/09 08:27:38;;;;;;;2.13;1.30;;;9.60;99.90;;;;;;5070526;28;20448;-75
2023/11/09 08:30:27;;;;;;;1.90;1.30;;;9.70;99.90;;;;;;5071897;28;20531;-75
2023/11/09 08:33:21;;;;;;;4.37;1.50;;;9.80;99.90;;;;;;5063957;28;20502;-73
2023/11/09 08:36:10;;;;;;;8.70;2.03;;;9.80;99.90;;;;;;5066589;28;21001;-76
2023/11/09 08:38:56;;;;;;;4.40;2.20;;;9.80;99.90;;;;;;5068347;28;20529;-75
2023/11/09 08:41:41;;;;;;;2.87;1.50;;;9.70;99.90;;;;;;5069788;28;21111;-74
2023/11/09 08:44:27;;;;;;;2.90;1.77;;;9.70;99.90;;;;;;5066367;28;20963;-76
2023/11/09 08:47:13;;;;;;;3.27;1.97;;;9.80;99.90;;;;;;5075433;28;20442;-77
2023/11/09 08:50:00;;;;;;;6.23;1.93;;;9.80;99.90;;;;;;5071508;28;20884;-75
2023/11/09 08:52:46;;;;;;;3.10;1.47;;;9.80;99.90;;;;;;5078131;28;20466;-76
2023/11/09 08:55:32;;;;;;;3.97;1.67;;;9.80;99.90;;;;;;5073175;28;20472;-76
2023/11/09 08:58:18;;;;;;;6.37;1.33;;;9.80;99.90;;;;;;5071334;28;20449;-75
2023/11/09 09:01:06;;;;;;;3.07;1.80;;;9.80;99.90;;;;;;5075976;28;20546;-76
2023/11/09 09:03:51;;;;;;;3.47;1.70;;;9.80;99.90;;;;;;5083744;28;20996;-76
2023/11/09 09:06:40;;;;;;;2.80;1.37;;;9.80;99.90;;;;;;5083873;28;20445;-76
2023/11/09 09:09:26;;;;;;;2.57;1.63;;;9.80;99.90;;;;;;5082219;28;20460;-74
2023/11/09 09:12:12;;;;;;;2.50;1.53;;;9.90;99.90;;;;;;5079272;28;20474;-75
2023/11/09 09:14:57;;;;;;;2.90;1.50;;;9.90;99.90;;;;;;5075372;28;21861;-75
2023/11/09 09:17:43;;;;;;;3.20;1.57;;;9.90;99.90;;;;;;5076327;28;20447;-75
2023/11/09 09:20:29;;;;;;;2.80;1.53;;;9.80;99.90;;;;;;5075402;28;20468;-75
2023/11/09 09:23:16;;;;;;;3.90;1.50;;;9.80;99.90;;;;;;5076995;28;20462;-74
2023/11/09 09:26:03;;;;;;;2.80;1.60;;;9.80;99.90;;;;;;5076375;28;20437;-74
2023/11/09 09:28:49;;;;;;;2.50;1.57;;;9.80;99.90;;;;;;5079881;28;20436;-75
2023/11/09 09:31:35;;;;;;;2.97;1.47;;;9.90;99.90;;;;;;5082355;28;20463;-76
2023/11/09 09:34:23;;;;;;;3.37;1.30;;;9.90;99.90;;;;;;5077619;28;20461;-75
2023/11/09 09:37:10;;;;;;;2.23;1.27;;;9.90;99.90;;;;;;5071149;28;20444;-75
2023/11/09 09:39:57;;;;;;;4.63;1.90;;;10.00;99.90;;;;;;5074443;28;20808;-75
2023/11/09 09:42:46;;;;;;;3.97;1.43;;;10.10;99.90;;;;;;5075442;28;20574;-76
2023/11/09 09:45:32;;;;;;;4.07;1.80;;;10.20;99.90;;;;;;5070755;28;20455;-75
2023/11/09 09:48:18;;;;;;;8.10;3.00;;;10.20;99.90;;;;;;5074801;28;20448;-75
2023/11/09 09:51:09;;;;;;;6.10;2.20;;;10.30;99.90;;;;;;5081013;28;20879;-75
2023/11/09 09:53:56;;;;;;;4.50;1.80;;;10.30;99.90;;;;;;5084376;28;20445;-75
2023/11/09 09:56:47;;;;;;;2.33;1.47;;;10.40;99.90;;;;;;5077457;28;20477;-75
2023/11/09 09:59:34;;;;;;;2.77;1.73;;;10.40;99.90;;;;;;5073187;28;20930;-75
2023/11/09 10:02:20;;;;;;;2.40;1.53;;;10.40;99.90;;;;;;5069810;28;21019;-75
2023/11/09 10:05:06;;;;;;;7.50;1.50;;;10.30;99.90;;;;;;5066578;28;20456;-75
2023/11/09 10:08:13;;;;;;;2.00;1.20;;;10.30;99.90;;;;;;5071018;28;20517;-75
2023/11/09 10:10:58;;;;;;;2.67;1.60;;;10.20;99.90;;;;;;5079538;28;20510;-75
2023/11/09 10:13:46;;;;;;;2.77;1.57;;;10.20;99.90;;;;;;5072909;28;20448;-75
2023/11/09 10:16:32;;;;;;;2.53;1.60;;;10.20;99.90;;;;;;5068940;28;20469;-76
2023/11/09 10:19:18;;;;;;;3.17;1.30;;;10.20;99.90;;;;;;5070092;28;20449;-74
2023/11/09 10:22:05;;;;;;;2.17;1.37;;;10.20;99.90;;;;;;5078190;28;20469;-75
2023/11/09 10:24:51;;;;;;;2.93;1.73;;;10.20;99.90;;;;;;5075922;28;20586;-75
2023/11/09 10:27:37;;;;;;;2.47;1.40;;;10.20;99.90;;;;;;5074183;28;20532;-75
2023/11/09 10:30:25;;;;;;;2.23;1.33;;;10.20;99.90;;;;;;5072688;28;20442;-75
2023/11/09 10:33:11;;;;;;;3.40;1.50;;;10.20;99.90;;;;;;5076160;28;21075;-75
2023/11/09 10:35:58;;;;;;;2.87;1.60;;;10.20;99.90;;;;;;5082059;28;20582;-75
2023/11/09 10:38:46;;;;;;;2.60;1.53;;;10.20;99.90;;;;;;5074687;28;20565;-76
2023/11/09 10:41:32;;;;;;;3.00;1.70;;;10.20;99.90;;;;;;5076329;28;20482;-74
2023/11/09 10:44:22;;;;;;;3.00;1.30;;;10.20;99.90;;;;;;5078109;28;20817;-74
2023/11/09 10:47:09;;;;;;;4.13;1.30;;;10.20;99.90;;;;;;5085818;28;20453;-74
2023/11/09 10:49:56;;;;;;;4.07;1.50;;;10.20;99.90;;;;;;5081924;28;20457;-76
2023/11/09 10:52:44;;;;;;;3.50;1.63;;;10.30;99.90;;;;;;5073888;28;20631;-76
2023/11/09 10:55:31;;;;;;;2.20;1.50;;;10.20;99.90;;;;;;5075496;28;20477;-76
2023/11/09 10:58:20;;;;;;;3.80;1.80;;;10.30;99.90;;;;;;5075513;28;20528;-74
2023/11/09 11:01:06;;;;;;;5.20;1.70;;;10.20;99.90;;;;;;5072640;28;20471;-75
2023/11/09 11:03:56;;;;;;;2.53;1.70;;;10.20;99.90;;;;;;5067002;28;20468;-75
2023/11/09 11:06:50;;;;;;;3.30;1.73;;;10.20;99.90;;;;;;5077171;28;20576;-75
2023/11/09 11:09:37;;;;;;;2.67;1.67;;;10.20;99.90;;;;;;5070018;28;20420;-75
2023/11/09 11:12:24;;;;;;;8.30;1.97;;;10.30;99.90;;;;;;5071799;28;20618;-75
2023/11/09 11:15:11;;;;;;;2.33;1.53;;;10.30;99.90;;;;;;5070691;28;20528;-75
2023/11/09 11:18:05;;;;;;;3.07;1.40;;;10.30;99.90;;;;;;5073235;28;20444;-75
2023/11/09 11:21:05;;;;;;;2.57;1.77;;;10.30;99.90;;;;;;5073320;28;20443;-76
2023/11/09 11:24:16;;;;;;;5.23;1.90;;;10.30;99.90;;;;;;5073524;28;20809;-75
2023/11/09 11:27:09;;;;;;;3.63;2.30;;;10.30;99.90;;;;;;5033850;28;20935;-75
2023/11/09 11:29:56;;;;;;;2.77;1.63;;;10.20;99.90;;;;;;5066330;28;20509;-75
2023/11/09 11:32:43;;;;;;;4.50;1.90;;;10.30;99.90;;;;;;5065065;28;20489;-76
2023/11/09 11:35:33;;;;;;;2.93;1.80;;;10.30;99.90;;;;;;5064494;28;20472;-75
2023/11/09 11:38:23;;;;;;;2.50;1.90;;;10.30;99.90;;;;;;5068863;28;20455;-74
2023/11/09 11:41:18;;;;;;;5.60;2.30;;;10.40;99.90;;;;;;5076458;28;20469;-76
2023/11/09 11:44:05;;;;;;;3.70;2.20;;;10.50;99.90;;;;;;5063659;28;20449;-74
2023/11/09 11:46:52;;;;;;;5.00;2.33;;;10.50;99.90;;;;;;5068803;28;20453;-74
2023/11/09 11:49:37;;;;;;;3.43;1.90;;;10.60;99.90;;;;;;5068587;28;20453;-75
2023/11/09 11:52:24;;;;;;;6.93;1.90;;;10.60;99.90;;;;;;5065509;28;20481;-76
2023/11/09 11:55:11;;;;;;;5.30;1.80;;;10.70;99.90;;;;;;5071586;28;20917;-76
2023/11/09 11:58:04;;;;;;;3.23;1.90;;;10.70;99.90;;;;;;5071701;28;20984;-75
2023/11/09 12:00:51;;;;;;;4.80;1.53;;;10.70;99.90;;;;;;5070176;28;20516;-75
2023/11/09 12:03:41;;;;;;;3.57;1.73;;;10.70;99.90;;;;;;5069333;28;20449;-75
2023/11/09 12:06:28;;;;;;;2.60;1.93;;;10.80;99.90;;;;;;5066244;28;20450;-76
2023/11/09 12:09:15;;;;;;;5.07;1.93;;;10.70;99.90;;;;;;5070991;28;20442;-76
2023/11/09 12:12:02;;;;;;;2.60;1.50;;;10.70;99.90;;;;;;5069092;28;20483;-75
2023/11/09 12:14:49;;;;;;;2.47;1.73;;;10.80;99.90;;;;;;5074763;28;20456;-75
2023/11/09 12:17:34;;;;;;;4.57;1.80;;;10.80;99.90;;;;;;5071764;28;21146;-75
2023/11/09 12:20:20;;;;;;;2.20;1.47;;;10.80;99.90;;;;;;5069279;28;20527;-75
2023/11/09 12:23:07;;;;;;;2.67;1.63;;;10.90;99.90;;;;;;5078203;28;20614;-76
2023/11/09 12:25:53;;;;;;;3.00;1.97;;;10.90;99.90;;;;;;5072921;28;20449;-75
2023/11/09 12:28:40;;;;;;;3.90;1.97;;;10.90;99.90;;;;;;5072361;28;20421;-74
2023/11/09 12:31:26;;;;;;;2.57;1.63;;;10.90;99.90;;;;;;5076072;28;21015;-75
2023/11/09 12:34:14;;;;;;;5.47;1.67;;;10.90;99.90;;;;;;5067346;28;20968;-75
2023/11/09 12:37:00;;;;;;;2.63;1.60;;;10.90;99.90;;;;;;5075253;28;20558;-75
2023/11/09 12:39:48;;;;;;;4.10;1.67;;;10.90;99.90;;;;;;5070391;28;20614;-75
2023/11/09 12:42:34;;;;;;;5.40;1.83;;;10.90;99.90;;;;;;5078678;28;20484;-75
2023/11/09 12:45:21;;;;;;;3.83;2.07;;;10.90;99.90;;;;;;5063086;28;21060;-75
2023/11/09 12:48:08;;;;;;;3.07;1.80;;;10.90;99.90;;;;;;5080454;28;20415;-76
2023/11/09 12:50:53;;;;;;;5.57;1.70;;;10.90;99.90;;;;;;5067267;28;20443;-75
2023/11/09 12:53:42;;;;;;;3.80;1.90;;;10.90;99.90;;;;;;5070523;28;20452;-73
2023/11/09 12:56:28;;;;;;;4.60;1.80;;;10.90;99.90;;;;;;5069771;28;20477;-75
2023/11/09 12:59:14;;;;;;;3.03;2.00;;;10.90;99.90;;;;;;5072383;28;20439;-75
2023/11/09 13:02:03;;;;;;;3.03;1.80;;;11.00;99.90;;;;;;5075338;28;20480;-75
2023/11/09 13:04:51;;;;;;;4.10;1.80;;;11.00;99.90;;;;;;5068246;28;20450;-75
2023/11/09 13:07:37;;;;;;;3.90;1.37;;;11.10;99.90;;;;;;5072711;28;20651;-76
2023/11/09 13:10:25;;;;;;;3.07;1.30;;;11.20;99.90;;;;;;5075665;28;20468;-76
2023/11/09 13:13:20;;;;;;;4.03;1.83;;;11.30;99.90;;;;;;5071143;28;20490;-75
2023/11/09 13:16:14;;;;;;;4.53;1.97;;;11.30;99.90;;;;;;5068079;28;20491;-75
2023/11/09 13:19:02;;;;;;;2.70;1.47;;;11.40;99.90;;;;;;5070749;28;20694;-74
2023/11/09 13:21:48;;;;;;;2.90;1.70;;;11.40;99.90;;;;;;5084904;28;20481;-74
2023/11/09 13:24:35;;;;;;;3.30;1.30;;;11.50;99.90;;;;;;5081059;28;20530;-74
2023/11/09 13:27:24;;;;;;;2.83;1.40;;;11.50;99.90;;;;;;5057332;28;20833;-75
2023/11/09 13:30:17;;;;;;;2.87;1.23;;;11.50;99.90;;;;;;5061764;28;20603;-75
2023/11/09 13:33:14;;;;;;;2.87;1.57;;;11.50;99.90;;;;;;5067383;28;20455;-75
2023/11/09 13:36:04;;;;;;;2.13;1.30;;;11.50;99.90;;;;;;5068779;28;20448;-75
2023/11/09 13:39:18;;;;;;;2.10;1.20;;;11.50;99.90;;;;;;5070790;28;20416;-74
2023/11/09 13:42:04;;;;;;;1.90;1.23;;;11.40;99.90;;;;;;5069756;28;20448;-74
2023/11/09 13:44:49;;;;;;;2.40;1.60;;;11.50;99.90;;;;;;5073087;28;20423;-76
2023/11/09 13:47:35;;;;;;;2.20;1.40;;;11.50;99.90;;;;;;5071232;28;20405;-76
2023/11/09 13:50:22;;;;;;;2.53;1.53;;;11.50;99.90;;;;;;5079541;28;20511;-74
2023/11/09 13:53:24;;;;;;;2.90;1.70;;;11.50;99.90;;;;;;5072136;28;20442;-73
2023/11/09 13:59:30;;;;;;;3.57;1.23;;;11.60;99.90;;;;;;5076411;28;20544;-75
2023/11/09 14:02:16;;;;;;;2.93;1.80;;;11.60;99.90;;;;;;5082177;28;20485;-75
2023/11/09 14:05:05;;;;;;;4.27;1.50;;;11.60;99.90;;;;;;5069808;28;20459;-75
2023/11/09 14:07:54;;;;;;;3.50;1.53;;;11.60;99.90;;;;;;5081141;28;20441;-76
2023/11/09 14:10:41;;;;;;;3.67;1.70;;;11.60;99.90;;;;;;5080813;28;20672;-74
2023/11/09 14:13:28;;;;;;;5.40;1.57;;;11.60;99.90;;;;;;5075646;28;20446;-75
2023/11/09 14:16:19;;;;;;;4.40;1.37;;;11.60;99.90;;;;;;5072734;28;20975;-76
2023/11/09 14:19:20;;;;;;;3.00;1.53;;;11.60;99.90;;;;;;5067012;28;20450;-76
2023/11/09 14:22:06;;;;;;;4.07;2.03;;;11.60;99.90;;;;;;5065180;28;20461;-75
2023/11/09 14:24:53;;;;;;;2.37;1.40;;;11.50;99.90;;;;;;5059911;28;20965;-75
2023/11/09 14:27:40;;;;;;;9.03;2.27;;;11.50;99.90;;;;;;5063691;28;20447;-75
2023/11/09 14:30:30;;;;;;;2.30;1.53;;;11.60;99.90;;;;;;5071206;28;20645;-75
2023/11/09 14:33:23;;;;;;;3.20;1.67;;;11.50;99.90;;;;;;5073956;28;20429;-76
2023/11/09 14:36:09;;;;;;;4.17;2.10;;;11.60;99.90;;;;;;5077894;28;20445;-75
2023/11/09 14:38:55;;;;;;;2.97;1.43;;;11.60;99.90;;;;;;5076909;28;20441;-73
2023/11/09 14:41:44;;;;;;;4.80;1.60;;;11.60;99.90;;;;;;5073396;28;21057;-76
2023/11/09 14:44:32;;;;;;;5.23;1.97;;;11.60;99.90;;;;;;5071420;28;20441;-75